Voerendaal, Netherlands
Current Conditions -  °F | °C
As of 3:55 AM on Friday 28 Nov 2014 (Local Time) from EHBK Reporting Station
Haze Haze  
Wind Chill: 37°   Ceiling: Unl
Heat Index: 43°   Visibility: 3mi
Dew Point: 41°   Wind: 9mph
Humidity: 93%   Direction: 90°E
Pressure: 29.71"   Gusts: NA
Location:  50.88°N, 5.93°E
Report Text: EHBK 280255Z AUTO 09008KT 060V120 4900 BR NSC 06/05 Q1006
Loading
Personal Weather Stations






























Interactive Weather Map New forecast layout! Learn more

10-Day Weather Forecast

Advertisements
Track Severe Weather on mobile